Time;durP1;ratioP1;P1;durP2;ratioP2;P2;SDS_P1;SDS_P2;PMS_P1;PMS_P2;Temp;Humidity;BMP_temperature;BMP_pressure;BME280_temperature;BME280_humidity;BME280_pressure;Samples;Min_cycle;Max_cycle;Signal;HPM_P1;HPM_P2
2022/12/31 00:00:59;;;;;;;9.87;5.73;;;;;;;;;;5065918;28;20414;-67
2022/12/31 00:03:25;;;;;;;11.37;4.50;;;;;;;;;;5065389;28;20124;-67
2022/12/31 00:05:51;;;;;;;13.07;5.27;;;;;;;;;;5067898;28;20068;-67
2022/12/31 00:08:17;;;;;;;14.13;5.17;;;;;;;;;;5066214;28;20071;-67
2022/12/31 00:10:43;;;;;;;13.03;5.10;;;;;;;;;;5063420;28;20908;-67
2022/12/31 00:13:10;;;;;;;16.30;5.40;;;;;;;;;;5049276;28;20068;-67
2022/12/31 00:15:37;;;;;;;12.80;5.30;;;;;;;;;;5054520;28;20041;-68
2022/12/31 00:18:03;;;;;;;13.80;6.00;;;;;;;;;;5064907;28;20048;-67
2022/12/31 00:20:29;;;;;;;12.03;5.43;;;;;;;;;;5064049;28;20521;-68
2022/12/31 00:22:55;;;;;;;11.13;5.53;;;;;;;;;;5062196;28;20048;-67
2022/12/31 00:25:21;;;;;;;14.03;4.90;;;;;;;;;;5051838;28;20047;-67
2022/12/31 00:27:47;;;;;;;8.77;4.63;;;;;;;;;;5069336;28;20092;-67
2022/12/31 00:30:13;;;;;;;9.57;4.53;;;;;;;;;;5068617;28;20080;-67
2022/12/31 00:32:39;;;;;;;11.27;4.43;;;;;;;;;;5069291;28;20063;-67
2022/12/31 00:35:06;;;;;;;10.53;4.17;;;;;;;;;;5061394;28;20044;-67
2022/12/31 00:37:32;;;;;;;11.07;4.20;;;;;;;;;;5069585;28;20044;-67
2022/12/31 00:39:58;;;;;;;12.23;4.87;;;;;;;;;;5067645;28;20087;-67
2022/12/31 00:42:24;;;;;;;9.83;4.80;;;;;;;;;;5068330;28;20106;-67
2022/12/31 00:44:50;;;;;;;9.23;4.07;;;;;;;;;;5069835;28;20068;-67
2022/12/31 00:47:16;;;;;;;9.63;4.60;;;;;;;;;;5069817;28;20233;-68
2022/12/31 00:49:42;;;;;;;8.83;4.50;;;;;;;;;;5069584;28;20103;-68
2022/12/31 00:52:08;;;;;;;7.43;4.30;;;;;;;;;;5065302;28;20568;-68
2022/12/31 00:54:34;;;;;;;11.47;4.43;;;;;;;;;;5050499;28;20062;-68
2022/12/31 00:57:00;;;;;;;8.33;4.73;;;;;;;;;;5050668;28;20606;-68
2022/12/31 00:59:26;;;;;;;8.97;4.20;;;;;;;;;;5049803;28;20041;-68
2022/12/31 01:01:52;;;;;;;9.13;4.10;;;;;;;;;;5048425;28;20099;-68
2022/12/31 01:04:19;;;;;;;11.33;3.93;;;;;;;;;;5058480;28;20498;-68
2022/12/31 01:06:45;;;;;;;7.57;3.97;;;;;;;;;;5069245;28;20127;-67
2022/12/31 01:09:12;;;;;;;8.63;5.23;;;;;;;;;;5070234;28;20051;-67
2022/12/31 01:11:38;;;;;;;6.87;3.57;;;;;;;;;;5070281;28;20494;-67
2022/12/31 01:14:05;;;;;;;7.60;4.07;;;;;;;;;;5065921;28;20098;-67
2022/12/31 01:16:31;;;;;;;9.80;3.87;;;;;;;;;;5049540;28;20503;-67
2022/12/31 01:18:58;;;;;;;7.57;3.37;;;;;;;;;;5063806;28;20183;-68
2022/12/31 01:21:24;;;;;;;8.40;4.13;;;;;;;;;;5056298;28;20525;-68
2022/12/31 01:23:50;;;;;;;9.00;3.90;;;;;;;;;;5049873;28;20603;-68
2022/12/31 01:26:17;;;;;;;6.87;3.63;;;;;;;;;;5050094;28;20472;-68
2022/12/31 01:28:43;;;;;;;7.03;4.13;;;;;;;;;;5048735;28;20088;-68
2022/12/31 01:31:13;;;;;;;8.60;4.40;;;;;;;;;;5049984;28;20080;-68
2022/12/31 01:33:41;;;;;;;11.10;4.20;;;;;;;;;;5049870;28;20041;-68
2022/12/31 01:36:11;;;;;;;10.57;4.00;;;;;;;;;;5048967;28;20083;-68
2022/12/31 01:38:37;;;;;;;9.77;3.80;;;;;;;;;;5065664;28;20041;-68
2022/12/31 01:41:04;;;;;;;12.03;4.23;;;;;;;;;;5069297;28;20052;-68
2022/12/31 01:43:45;;;;;;;10.90;4.47;;;;;;;;;;5067740;28;20554;-68
2022/12/31 01:46:13;;;;;;;8.23;4.03;;;;;;;;;;5047034;28;20055;-68
2022/12/31 01:48:39;;;;;;;9.20;4.60;;;;;;;;;;5049717;28;20056;-69
2022/12/31 01:51:09;;;;;;;10.20;3.90;;;;;;;;;;5049451;28;20432;-68
2022/12/31 01:53:35;;;;;;;10.53;4.30;;;;;;;;;;5049183;28;20076;-68
2022/12/31 01:56:02;;;;;;;6.73;3.53;;;;;;;;;;5049422;28;20049;-68
2022/12/31 01:58:38;;;;;;;7.20;3.13;;;;;;;;;;5050361;28;20482;-68
2022/12/31 02:01:06;;;;;;;15.37;3.00;;;;;;;;;;5068743;28;20582;-68
2022/12/31 02:03:32;;;;;;;9.07;3.03;;;;;;;;;;5067806;28;20054;-68
2022/12/31 02:06:14;;;;;;;5.17;2.27;;;;;;;;;;5069669;28;20145;-68
2022/12/31 02:08:40;;;;;;;5.70;2.37;;;;;;;;;;5068798;28;20049;-68
2022/12/31 02:11:42;;;;;;;8.27;2.60;;;;;;;;;;5048960;28;20048;-68
2022/12/31 02:14:16;;;;;;;8.07;1.87;;;;;;;;;;5026606;28;20483;-68
2022/12/31 02:16:51;;;;;;;6.77;1.63;;;;;;;;;;5045686;28;20052;-68
2022/12/31 02:19:35;;;;;;;3.43;1.57;;;;;;;;;;5049277;28;20174;-68
2022/12/31 02:22:01;;;;;;;8.60;1.73;;;;;;;;;;5059622;28;20056;-68
2022/12/31 02:24:53;;;;;;;7.67;1.80;;;;;;;;;;5068131;28;20059;-68
2022/12/31 02:27:19;;;;;;;6.97;1.80;;;;;;;;;;5050428;28;20045;-69
2022/12/31 02:30:03;;;;;;;5.57;2.20;;;;;;;;;;5047997;28;20055;-68
2022/12/31 02:32:52;;;;;;;7.27;2.07;;;;;;;;;;5058722;28;20106;-68
2022/12/31 02:35:18;;;;;;;5.67;2.40;;;;;;;;;;5068661;28;20052;-68
2022/12/31 02:37:47;;;;;;;7.27;2.53;;;;;;;;;;5068694;28;20165;-68
2022/12/31 02:40:17;;;;;;;5.40;2.83;;;;;;;;;;5068545;28;20049;-68
2022/12/31 02:42:43;;;;;;;6.10;2.20;;;;;;;;;;5058238;28;20094;-68
2022/12/31 02:45:10;;;;;;;6.93;2.43;;;;;;;;;;5048604;28;20136;-68
2022/12/31 02:47:51;;;;;;;9.30;2.40;;;;;;;;;;5060699;28;20546;-68
2022/12/31 02:50:20;;;;;;;5.77;2.23;;;;;;;;;;5067522;28;20084;-68
2022/12/31 02:52:49;;;;;;;10.47;2.70;;;;;;;;;;5064673;28;20084;-68
2022/12/31 02:55:19;;;;;;;9.70;2.43;;;;;;;;;;5048494;28;20041;-68
2022/12/31 02:57:51;;;;;;;12.37;3.13;;;;;;;;;;5057947;28;20725;-68
2022/12/31 03:03:03;;;;;;;9.23;4.00;;;;;;;;;;5056667;28;20064;-67
2022/12/31 03:05:30;;;;;;;9.53;3.77;;;;;;;;;;5046667;28;20048;-67
2022/12/31 03:07:56;;;;;;;7.67;4.23;;;;;;;;;;5048317;28;20041;-67
2022/12/31 03:10:22;;;;;;;14.47;4.93;;;;;;;;;;5048072;28;20041;-67
2022/12/31 03:12:48;;;;;;;12.37;5.07;;;;;;;;;;5048377;28;20056;-68
2022/12/31 03:15:20;;;;;;;9.47;4.23;;;;;;;;;;5047031;28;20771;-67
2022/12/31 03:17:54;;;;;;;11.13;4.57;;;;;;;;;;5047484;28;20103;-68
2022/12/31 03:23:07;;;;;;;8.63;5.17;;;;;;;;;;5047292;28;20144;-67
2022/12/31 03:25:34;;;;;;;11.40;4.60;;;;;;;;;;5048307;28;20040;-67
2022/12/31 03:28:04;;;;;;;9.73;4.50;;;;;;;;;;5048102;28;20041;-67
2022/12/31 03:30:31;;;;;;;9.47;5.00;;;;;;;;;;5047400;28;20809;-67
2022/12/31 03:32:57;;;;;;;13.03;5.37;;;;;;;;;;5047352;28;20048;-67
2022/12/31 03:35:24;;;;;;;9.10;4.93;;;;;;;;;;5046583;28;20106;-67
2022/12/31 03:37:50;;;;;;;12.73;6.23;;;;;;;;;;5047949;28;20045;-67
2022/12/31 03:40:17;;;;;;;10.30;5.37;;;;;;;;;;5051929;28;20237;-67
2022/12/31 03:42:43;;;;;;;8.33;5.07;;;;;;;;;;5065920;28;20051;-67
2022/12/31 03:45:09;;;;;;;11.57;5.90;;;;;;;;;;5052449;28;20098;-68
2022/12/31 03:47:36;;;;;;;11.97;6.33;;;;;;;;;;5046617;28;20414;-67
2022/12/31 03:50:02;;;;;;;15.03;5.80;;;;;;;;;;5046595;28;20089;-68
2022/12/31 03:52:28;;;;;;;8.73;5.33;;;;;;;;;;5052184;28;20047;-68
2022/12/31 03:54:54;;;;;;;10.37;5.17;;;;;;;;;;5064512;28;20041;-68
2022/12/31 03:57:20;;;;;;;16.93;6.07;;;;;;;;;;5066710;28;20080;-68
2022/12/31 03:59:46;;;;;;;10.50;6.10;;;;;;;;;;5068886;28;20045;-68
2022/12/31 04:02:12;;;;;;;11.83;5.90;;;;;;;;;;5069635;28;20387;-68
2022/12/31 04:04:38;;;;;;;9.93;4.90;;;;;;;;;;5053675;28;20094;-68
2022/12/31 04:07:04;;;;;;;8.90;4.97;;;;;;;;;;5071650;28;20072;-68
2022/12/31 04:09:30;;;;;;;8.70;4.20;;;;;;;;;;5071483;28;20139;-68
2022/12/31 04:11:56;;;;;;;8.50;3.80;;;;;;;;;;5070263;28;20044;-68
2022/12/31 04:14:22;;;;;;;7.90;2.83;;;;;;;;;;5071534;28;20071;-68
2022/12/31 04:16:48;;;;;;;12.83;3.30;;;;;;;;;;5069122;28;20900;-68
2022/12/31 04:19:14;;;;;;;9.43;3.20;;;;;;;;;;5071550;28;20135;-68
2022/12/31 04:21:40;;;;;;;8.73;3.03;;;;;;;;;;5069943;28;20131;-68
2022/12/31 04:24:06;;;;;;;8.70;2.73;;;;;;;;;;5070809;28;20049;-68
2022/12/31 04:26:32;;;;;;;7.37;3.10;;;;;;;;;;5071051;28;20179;-68
2022/12/31 04:28:58;;;;;;;11.27;3.30;;;;;;;;;;5071290;28;20044;-69
2022/12/31 04:31:24;;;;;;;13.07;3.30;;;;;;;;;;5069693;28;20137;-69
2022/12/31 04:33:50;;;;;;;6.87;2.57;;;;;;;;;;5070690;28;20430;-69
2022/12/31 04:36:17;;;;;;;10.13;2.33;;;;;;;;;;5056918;28;20037;-69
2022/12/31 04:38:42;;;;;;;9.37;2.60;;;;;;;;;;5050013;28;20384;-68
2022/12/31 04:41:19;;;;;;;9.57;3.00;;;;;;;;;;5050716;28;20095;-68
2022/12/31 04:43:49;;;;;;;10.30;3.10;;;;;;;;;;5051223;28;20043;-68
2022/12/31 04:46:16;;;;;;;6.80;2.97;;;;;;;;;;5049736;28;20057;-68
2022/12/31 04:48:43;;;;;;;12.90;3.63;;;;;;;;;;5033579;28;20084;-68
2022/12/31 04:51:09;;;;;;;8.37;2.93;;;;;;;;;;5061692;28;20048;-68
2022/12/31 04:53:35;;;;;;;18.30;4.37;;;;;;;;;;5070556;28;20048;-68
2022/12/31 04:56:01;;;;;;;11.47;4.00;;;;;;;;;;5070864;28;20044;-68
2022/12/31 04:58:27;;;;;;;13.13;4.47;;;;;;;;;;5070853;28;20060;-68
2022/12/31 05:00:54;;;;;;;10.90;3.90;;;;;;;;;;5052926;28;20671;-68
2022/12/31 05:03:20;;;;;;;17.00;6.10;;;;;;;;;;5051123;28;20074;-68
2022/12/31 05:05:46;;;;;;;9.50;4.10;;;;;;;;;;5054980;28;20052;-68
2022/12/31 05:08:13;;;;;;;9.77;4.77;;;;;;;;;;5049150;28;20059;-68
2022/12/31 05:10:43;;;;;;;14.00;5.50;;;;;;;;;;5053336;28;20641;-68
2022/12/31 05:13:09;;;;;;;15.43;5.93;;;;;;;;;;5070619;28;20040;-68
2022/12/31 05:15:35;;;;;;;11.47;5.73;;;;;;;;;;5052315;28;20098;-68
2022/12/31 05:18:01;;;;;;;14.67;7.70;;;;;;;;;;5070766;28;20044;-68
2022/12/31 05:20:27;;;;;;;23.07;9.03;;;;;;;;;;5055630;28;20590;-68
2022/12/31 05:22:53;;;;;;;14.93;7.87;;;;;;;;;;5050470;28;20534;-68
2022/12/31 05:25:19;;;;;;;20.73;9.00;;;;;;;;;;5049695;28;20578;-68
2022/12/31 05:27:45;;;;;;;16.60;8.60;;;;;;;;;;5050473;28;20088;-68
2022/12/31 05:30:12;;;;;;;15.63;9.57;;;;;;;;;;5048991;28;20076;-68
2022/12/31 05:32:38;;;;;;;17.90;9.80;;;;;;;;;;5067121;28;20124;-68
2022/12/31 05:35:04;;;;;;;13.70;8.47;;;;;;;;;;5069776;28;20131;-69
2022/12/31 05:37:31;;;;;;;21.00;9.50;;;;;;;;;;5068802;28;20044;-69
2022/12/31 05:39:57;;;;;;;18.87;10.00;;;;;;;;;;5068806;28;20045;-69
2022/12/31 05:42:23;;;;;;;16.40;8.27;;;;;;;;;;5068628;28;20041;-69
2022/12/31 05:44:49;;;;;;;12.47;7.53;;;;;;;;;;5068236;28;20116;-68
2022/12/31 05:47:16;;;;;;;16.03;7.67;;;;;;;;;;5069705;28;20506;-68
2022/12/31 05:49:42;;;;;;;15.40;8.10;;;;;;;;;;5067962;28;20041;-68
2022/12/31 05:52:08;;;;;;;13.50;7.40;;;;;;;;;;5069546;28;20053;-69
2022/12/31 05:54:35;;;;;;;14.63;6.03;;;;;;;;;;5069473;28;20054;-68
2022/12/31 05:57:01;;;;;;;16.03;7.00;;;;;;;;;;5069413;28;20298;-68
2022/12/31 05:59:27;;;;;;;14.70;8.00;;;;;;;;;;5056675;28;20045;-69
2022/12/31 06:01:53;;;;;;;16.67;8.20;;;;;;;;;;5058908;28;20052;-68
2022/12/31 06:04:19;;;;;;;14.87;7.03;;;;;;;;;;5068002;28;20044;-69
2022/12/31 06:06:45;;;;;;;11.33;6.50;;;;;;;;;;5067621;28;20048;-68
2022/12/31 06:09:11;;;;;;;11.43;5.70;;;;;;;;;;5067437;28;20044;-68
2022/12/31 06:11:37;;;;;;;13.93;5.73;;;;;;;;;;5067295;28;20481;-69
2022/12/31 06:14:03;;;;;;;28.17;7.73;;;;;;;;;;5055535;28;20052;-69
2022/12/31 06:16:29;;;;;;;15.47;7.50;;;;;;;;;;5047592;28;20048;-69
2022/12/31 06:18:55;;;;;;;15.57;7.17;;;;;;;;;;5047919;28;20048;-69
2022/12/31 06:21:21;;;;;;;12.03;6.70;;;;;;;;;;5047696;28;20393;-69
2022/12/31 06:23:48;;;;;;;15.47;7.37;;;;;;;;;;5048907;28;20083;-68
2022/12/31 06:26:14;;;;;;;23.23;7.60;;;;;;;;;;5049062;28;20102;-69
2022/12/31 06:28:40;;;;;;;18.03;6.83;;;;;;;;;;5050593;28;20071;-69
2022/12/31 06:31:08;;;;;;;15.03;7.13;;;;;;;;;;5059169;28;20495;-69
2022/12/31 06:33:34;;;;;;;11.17;5.17;;;;;;;;;;5067815;28;20463;-68
2022/12/31 06:36:01;;;;;;;17.83;7.70;;;;;;;;;;5051777;28;20072;-68
2022/12/31 06:38:29;;;;;;;15.17;7.23;;;;;;;;;;5048804;28;20395;-68
2022/12/31 06:40:55;;;;;;;21.90;9.03;;;;;;;;;;5046713;28;20049;-68
2022/12/31 06:43:21;;;;;;;12.47;6.47;;;;;;;;;;5047660;28;20051;-68
2022/12/31 06:45:48;;;;;;;16.43;8.03;;;;;;;;;;5030465;28;20107;-68
2022/12/31 06:48:14;;;;;;;16.20;7.63;;;;;;;;;;5030655;28;20052;-68
2022/12/31 06:50:40;;;;;;;14.30;7.00;;;;;;;;;;5048046;28;20049;-69
2022/12/31 06:53:07;;;;;;;26.90;9.70;;;;;;;;;;5057262;28;20486;-68
2022/12/31 06:55:33;;;;;;;17.60;7.70;;;;;;;;;;5068370;28;20407;-69
2022/12/31 06:57:59;;;;;;;15.60;7.97;;;;;;;;;;5068373;28;20044;-68
2022/12/31 07:00:25;;;;;;;17.37;6.80;;;;;;;;;;5068252;28;20055;-69
2022/12/31 07:03:03;;;;;;;16.23;6.93;;;;;;;;;;5057825;28;20124;-68
2022/12/31 07:05:44;;;;;;;18.80;7.47;;;;;;;;;;5048450;28;20820;-68
2022/12/31 07:08:29;;;;;;;17.37;6.93;;;;;;;;;;5059740;28;20086;-68
2022/12/31 07:11:30;;;;;;;13.93;6.83;;;;;;;;;;5068372;28;20053;-68
2022/12/31 07:14:04;;;;;;;17.87;7.07;;;;;;;;;;5045686;28;20049;-68
2022/12/31 07:16:35;;;;;;;20.23;7.47;;;;;;;;;;5064466;28;20060;-68
2022/12/31 07:19:20;;;;;;;16.40;7.30;;;;;;;;;;5068420;28;20640;-68
2022/12/31 07:21:48;;;;;;;13.07;6.47;;;;;;;;;;5064193;28;20486;-69
2022/12/31 07:24:15;;;;;;;20.60;7.47;;;;;;;;;;5047065;28;20052;-69
2022/12/31 07:26:46;;;;;;;16.27;6.97;;;;;;;;;;5048032;28;20052;-69
2022/12/31 07:29:31;;;;;;;13.53;6.00;;;;;;;;;;5052870;28;20041;-69
2022/12/31 07:32:04;;;;;;;13.70;6.50;;;;;;;;;;5066426;28;20060;-69
2022/12/31 07:34:39;;;;;;;13.77;6.35;;;;;;;;;;5069933;28;20052;-69
2022/12/31 07:37:12;;;;;;;14.87;6.63;;;;;;;;;;5069791;28;20058;-68
2022/12/31 07:40:02;;;;;;;13.40;6.37;;;;;;;;;;5071626;28;20052;-68
2022/12/31 07:42:33;;;;;;;10.63;5.57;;;;;;;;;;5053931;28;20050;-68
2022/12/31 07:45:07;;;;;;;18.77;7.10;;;;;;;;;;5053609;28;20079;-69
2022/12/31 07:47:33;;;;;;;17.83;7.57;;;;;;;;;;5070590;28;20689;-68
2022/12/31 07:49:59;;;;;;;13.80;6.20;;;;;;;;;;5071638;28;20044;-68
2022/12/31 07:52:26;;;;;;;15.80;7.17;;;;;;;;;;5068841;28;20055;-68
2022/12/31 07:54:52;;;;;;;15.50;7.37;;;;;;;;;;5070753;28;20445;-68
2022/12/31 07:57:19;;;;;;;24.53;9.27;;;;;;;;;;5053400;28;20086;-69
2022/12/31 08:00:00;;;;;;;15.53;6.90;;;;;;;;;;5069024;28;20155;-68
2022/12/31 08:02:29;;;;;;;14.33;7.23;;;;;;;;;;5066696;28;20045;-69
2022/12/31 08:05:02;;;;;;;18.03;7.70;;;;;;;;;;5051588;28;20102;-68
2022/12/31 08:07:43;;;;;;;14.75;6.47;;;;;;;;;;5051514;28;20049;-69
2022/12/31 08:10:12;;;;;;;17.17;7.13;;;;;;;;;;5050845;28;20056;-69
2022/12/31 08:12:39;;;;;;;13.47;6.57;;;;;;;;;;5056015;28;20051;-70
2022/12/31 08:15:16;;;;;;;10.93;6.07;;;;;;;;;;5070524;28;20048;-69
2022/12/31 08:17:42;;;;;;;12.43;6.33;;;;;;;;;;5070006;28;20044;-69
2022/12/31 08:20:13;;;;;;;13.03;6.47;;;;;;;;;;5069787;28;20040;-69
2022/12/31 08:22:45;;;;;;;18.27;6.73;;;;;;;;;;5071073;28;20052;-69
2022/12/31 08:25:14;;;;;;;15.07;6.20;;;;;;;;;;5069980;28;20059;-69
2022/12/31 08:27:46;;;;;;;13.00;6.43;;;;;;;;;;5069722;28;20052;-69
2022/12/31 08:30:17;;;;;;;11.07;5.87;;;;;;;;;;5070598;28;20044;-69
2022/12/31 08:32:46;;;;;;;10.73;6.07;;;;;;;;;;5070794;28;20095;-69
2022/12/31 08:35:27;;;;;;;5.03;3.27;;;;;;;;;;5056073;28;20135;-68
2022/12/31 08:37:58;;;;;;;9.57;4.93;;;;;;;;;;5063526;28;20098;-68
2022/12/31 08:40:24;;;;;;;6.33;4.87;;;;;;;;;;5057781;28;20430;-68
2022/12/31 08:43:16;;;;;;;7.40;4.37;;;;;;;;;;5061613;28;20059;-68
2022/12/31 08:45:46;;;;;;;7.07;4.73;;;;;;;;;;5068307;28;20423;-68
2022/12/31 08:48:18;;;;;;;5.60;3.97;;;;;;;;;;5070227;28;20078;-68
2022/12/31 08:50:44;;;;;;;6.50;3.73;;;;;;;;;;5056898;28;20048;-68
2022/12/31 08:53:10;;;;;;;5.23;3.60;;;;;;;;;;5050123;28;20053;-68
2022/12/31 08:55:37;;;;;;;6.10;3.40;;;;;;;;;;5056949;28;20079;-69
2022/12/31 08:58:06;;;;;;;3.73;2.60;;;;;;;;;;5058798;28;20076;-68
2022/12/31 09:00:33;;;;;;;4.67;2.63;;;;;;;;;;5052620;28;20052;-68
2022/12/31 09:03:15;;;;;;;5.97;2.60;;;;;;;;;;5066294;28;20271;-68
2022/12/31 09:06:01;;;;;;;3.07;2.10;;;;;;;;;;5069355;28;20371;-68
2022/12/31 09:08:45;;;;;;;2.80;1.83;;;;;;;;;;5068808;28;20154;-68
2022/12/31 09:11:28;;;;;;;2.47;1.70;;;;;;;;;;5070347;28;20044;-69
2022/12/31 09:14:03;;;;;;;3.83;1.80;;;;;;;;;;5055452;28;20580;-69
2022/12/31 09:16:35;;;;;;;5.83;2.40;;;;;;;;;;5060725;28;20076;-68
2022/12/31 09:19:01;;;;;;;3.67;1.60;;;;;;;;;;5049670;28;20040;-68
2022/12/31 09:21:28;;;;;;;1.97;1.13;;;;;;;;;;5049929;28;20102;-68
2022/12/31 09:23:54;;;;;;;3.50;1.40;;;;;;;;;;5051101;28;20053;-67
2022/12/31 09:26:39;;;;;;;2.60;1.40;;;;;;;;;;5057586;28;20768;-68
2022/12/31 09:29:16;;;;;;;2.77;1.00;;;;;;;;;;5062318;28;20481;-67
2022/12/31 09:31:58;;;;;;;2.53;1.10;;;;;;;;;;5052162;28;20044;-67
2022/12/31 09:34:36;;;;;;;3.83;1.00;;;;;;;;;;5062267;28;20503;-67
2022/12/31 09:37:04;;;;;;;2.40;0.90;;;;;;;;;;5069390;28;20044;-68
2022/12/31 09:39:30;;;;;;;3.00;0.97;;;;;;;;;;5055063;28;20107;-68
2022/12/31 09:42:04;;;;;;;1.93;0.70;;;;;;;;;;5048954;28;20131;-67
2022/12/31 09:44:49;;;;;;;2.00;0.90;;;;;;;;;;5049593;28;20067;-67
2022/12/31 09:47:42;;;;;;;2.70;1.00;;;;;;;;;;5058201;28;20052;-68
2022/12/31 09:50:16;;;;;;;1.27;0.68;;;;;;;;;;5048407;28;20045;-67
2022/12/31 09:52:50;;;;;;;3.90;1.00;;;;;;;;;;5050334;28;20047;-67
2022/12/31 09:55:35;;;;;;;3.13;0.77;;;;;;;;;;5057508;28;20048;-68
2022/12/31 09:58:04;;;;;;;2.27;0.63;;;;;;;;;;5053780;28;20171;-69
2022/12/31 10:00:37;;;;;;;2.77;0.57;;;;;;;;;;5049329;28;20055;-69
2022/12/31 10:03:22;;;;;;;1.07;0.47;;;;;;;;;;5057837;28;20076;-69
2022/12/31 10:06:06;;;;;;;1.20;0.63;;;;;;;;;;5069306;28;20521;-67
2022/12/31 10:08:53;;;;;;;2.20;0.90;;;;;;;;;;5049428;28;20049;-67
2022/12/31 10:11:27;;;;;;;3.43;0.90;;;;;;;;;;5030861;28;20040;-68
2022/12/31 10:13:53;;;;;;;4.57;1.10;;;;;;;;;;5058151;28;20087;-68
2022/12/31 10:16:22;;;;;;;3.00;1.10;;;;;;;;;;5067436;28;20105;-67
2022/12/31 10:18:57;;;;;;;3.40;1.00;;;;;;;;;;5058322;28;20135;-67
2022/12/31 10:21:23;;;;;;;3.30;1.20;;;;;;;;;;5048883;28;20052;-66
2022/12/31 10:24:04;;;;;;;4.00;1.60;;;;;;;;;;5048321;28;20040;-66
2022/12/31 10:26:53;;;;;;;4.87;1.70;;;;;;;;;;5066519;28;20048;-67
2022/12/31 10:29:34;;;;;;;3.20;1.37;;;;;;;;;;5057785;28;20110;-67
2022/12/31 10:32:20;;;;;;;3.47;1.20;;;;;;;;;;5050473;28;20471;-67
2022/12/31 10:34:55;;;;;;;4.07;1.67;;;;;;;;;;5050190;28;20094;-66
2022/12/31 10:37:28;;;;;;;3.07;1.63;;;;;;;;;;5047223;28;20056;-67
2022/12/31 10:39:57;;;;;;;7.65;1.95;;;;;;;;;;5061110;28;20044;-67
2022/12/31 10:42:35;;;;;;;7.47;2.43;;;;;;;;;;5060423;28;20628;-67
2022/12/31 10:45:20;;;;;;;7.87;2.70;;;;;;;;;;5066805;28;20052;-67
2022/12/31 10:48:05;;;;;;;5.40;2.80;;;;;;;;;;5053804;28;20063;-67
2022/12/31 10:50:49;;;;;;;8.77;2.43;;;;;;;;;;5056097;28;20044;-66
2022/12/31 10:53:18;;;;;;;5.83;2.40;;;;;;;;;;5067143;28;20123;-67
2022/12/31 10:55:59;;;;;;;6.57;2.10;;;;;;;;;;5064410;28;20044;-67
2022/12/31 10:58:31;;;;;;;6.23;3.30;;;;;;;;;;5067987;28;20063;-67
2022/12/31 11:01:03;;;;;;;9.97;4.20;;;;;;;;;;5055515;28;20099;-68
2022/12/31 11:03:48;;;;;;;9.33;3.50;;;;;;;;;;5048043;28;20052;-68
2022/12/31 11:06:17;;;;;;;11.63;2.70;;;;;;;;;;5042829;28;20051;-67
2022/12/31 11:09:01;;;;;;;8.83;2.70;;;;;;;;;;5067326;28;20094;-67
2022/12/31 11:11:26;;;;;;;;;;;;;;;;;;5052216;28;20084;-67
2022/12/31 11:14:03;;;;;;;6.47;2.67;;;;;;;;;;5047562;28;19960;-68
2022/12/31 11:16:32;;;;;;;6.87;2.90;;;;;;;;;;5061034;28;20422;-67
2022/12/31 11:19:01;;;;;;;5.17;2.10;;;;;;;;;;5068049;28;20079;-66
2022/12/31 11:21:42;;;;;;;8.27;4.90;;;;;;;;;;5052409;28;20064;-67
2022/12/31 11:24:37;;;;;;;28.03;19.37;;;;;;;;;;5056979;28;20053;-67
2022/12/31 11:27:15;;;;;;;26.40;16.13;;;;;;;;;;5030478;28;20049;-67
2022/12/31 11:30:00;;;;;;;14.00;8.03;;;;;;;;;;5066546;28;20056;-67
2022/12/31 11:32:33;;;;;;;8.63;5.17;;;;;;;;;;5065985;28;20049;-67
2022/12/31 11:35:06;;;;;;;9.30;4.60;;;;;;;;;;5064319;28;20417;-67
2022/12/31 11:37:41;;;;;;;6.30;3.50;;;;;;;;;;5067450;28;20108;-67
2022/12/31 11:40:13;;;;;;;8.50;2.83;;;;;;;;;;5063790;28;20044;-67
2022/12/31 11:42:43;;;;;;;6.00;2.40;;;;;;;;;;5067118;28;20061;-67
2022/12/31 11:45:16;;;;;;;6.90;1.93;;;;;;;;;;5065026;28;20057;-67
2022/12/31 11:47:56;;;;;;;5.30;2.37;;;;;;;;;;5066706;28;20056;-67
2022/12/31 11:50:42;;;;;;;6.33;2.60;;;;;;;;;;5059878;28;20314;-67
2022/12/31 11:53:14;;;;;;;4.43;2.00;;;;;;;;;;5046543;28;20566;-67
2022/12/31 11:55:41;;;;;;;5.27;2.03;;;;;;;;;;5060237;28;20036;-67
2022/12/31 11:58:19;;;;;;;6.93;2.00;;;;;;;;;;5062478;28;20141;-67
2022/12/31 12:01:05;;;;;;;5.13;2.17;;;;;;;;;;5047054;28;20081;-66
2022/12/31 12:03:32;;;;;;;7.07;2.17;;;;;;;;;;5049268;28;20198;-67
2022/12/31 12:05:58;;;;;;;9.10;2.63;;;;;;;;;;5056424;28;20052;-67
2022/12/31 12:08:26;;;;;;;4.63;2.63;;;;;;;;;;5056626;28;20044;-67
2022/12/31 12:11:13;;;;;;;8.90;2.70;;;;;;;;;;5056083;28;20143;-67
2022/12/31 12:13:39;;;;;;;7.77;4.30;;;;;;;;;;5056079;28;20546;-67
2022/12/31 12:16:06;;;;;;;8.53;3.43;;;;;;;;;;5058223;28;20147;-68
2022/12/31 12:18:37;;;;;;;8.03;3.53;;;;;;;;;;5061239;28;20131;-67
2022/12/31 12:21:14;;;;;;;6.13;3.23;;;;;;;;;;5060193;28;20092;-67
2022/12/31 12:23:41;;;;;;;12.27;3.87;;;;;;;;;;5056787;28;20406;-68
2022/12/31 12:26:24;;;;;;;7.47;3.40;;;;;;;;;;5054329;28;20052;-67
2022/12/31 12:28:50;;;;;;;9.23;3.38;;;;;;;;;;5058472;28;20540;-67
2022/12/31 12:31:18;;;;;;;4.40;2.30;;;;;;;;;;5059573;28;20644;-68
2022/12/31 12:33:45;;;;;;;6.40;2.23;;;;;;;;;;5058714;28;20049;-67
2022/12/31 12:36:12;;;;;;;5.40;2.53;;;;;;;;;;5059942;28;20105;-67
2022/12/31 12:38:38;;;;;;;3.97;2.03;;;;;;;;;;5059935;28;20495;-67
2022/12/31 12:41:06;;;;;;;4.77;2.87;;;;;;;;;;5060055;28;20144;-67
2022/12/31 12:43:33;;;;;;;6.80;4.67;;;;;;;;;;5055383;28;20101;-68
2022/12/31 12:46:34;;;;;;;10.03;5.63;;;;;;;;;;5059132;28;20099;-67
2022/12/31 12:49:02;;;;;;;19.90;11.60;;;;;;;;;;5005065;28;20100;-67
2022/12/31 12:51:33;;;;;;;16.60;9.53;;;;;;;;;;5049602;28;20446;-68
2022/12/31 12:54:08;;;;;;;15.23;8.37;;;;;;;;;;5059556;28;20037;-67
2022/12/31 12:56:40;;;;;;;12.73;7.23;;;;;;;;;;5061959;28;20449;-68
2022/12/31 12:59:12;;;;;;;15.93;6.93;;;;;;;;;;5062384;28;20098;-68
2022/12/31 13:01:46;;;;;;;13.23;6.13;;;;;;;;;;5056961;28;20554;-68
2022/12/31 13:04:18;;;;;;;28.30;7.63;;;;;;;;;;5055897;28;20071;-68
2022/12/31 13:06:50;;;;;;;25.70;7.83;;;;;;;;;;5057022;28;20143;-68
2022/12/31 13:09:31;;;;;;;18.70;7.73;;;;;;;;;;5057952;28;20551;-69
2022/12/31 13:11:57;;;;;;;15.80;5.70;;;;;;;;;;5059382;28;20060;-68
2022/12/31 13:14:31;;;;;;;18.50;6.63;;;;;;;;;;5042917;28;20041;-68
2022/12/31 13:16:57;;;;;;;13.97;4.70;;;;;;;;;;5058741;28;20384;-68
2022/12/31 13:19:29;;;;;;;0.00;0.00;;;;;;;;;;5040753;28;20047;-68
2022/12/31 13:21:55;;;;;;;0.30;0.13;;;;;;;;;;5056767;28;20048;-68
2022/12/31 13:24:24;;;;;;;1.37;0.30;;;;;;;;;;5059108;28;20036;-68
2022/12/31 13:26:56;;;;;;;0.10;0.10;;;;;;;;;;5057935;28;20378;-68
2022/12/31 13:29:24;;;;;;;1.60;0.73;;;;;;;;;;5060402;28;20178;-68
2022/12/31 13:31:51;;;;;;;1.40;1.07;;;;;;;;;;5056478;28;20048;-68
2022/12/31 13:34:23;;;;;;;1.20;0.93;;;;;;;;;;5058341;28;20405;-68
2022/12/31 13:36:51;;;;;;;1.00;0.93;;;;;;;;;;5058618;28;20044;-68
2022/12/31 13:39:23;;;;;;;0.47;0.47;;;;;;;;;;5059109;28;20447;-67
2022/12/31 13:41:54;;;;;;;0.50;0.30;;;;;;;;;;5056646;28;20041;-68
2022/12/31 13:44:26;;;;;;;21.37;12.17;;;;;;;;;;5053360;28;20517;-68
2022/12/31 13:46:55;;;;;;;16.97;9.27;;;;;;;;;;5058388;28;20091;-68
2022/12/31 13:49:26;;;;;;;13.10;7.40;;;;;;;;;;5058239;28;20049;-68
2022/12/31 13:51:57;;;;;;;15.43;7.50;;;;;;;;;;5057746;28;20071;-68
2022/12/31 13:54:42;;;;;;;13.97;7.10;;;;;;;;;;5058373;28;20040;-68
2022/12/31 13:57:16;;;;;;;10.37;5.03;;;;;;;;;;5058801;28;20040;-67
2022/12/31 13:59:45;;;;;;;81.13;11.77;;;;;;;;;;5040088;28;20044;-69
2022/12/31 14:02:14;;;;;;;29.50;15.37;;;;;;;;;;5058135;28;20098;-68
2022/12/31 14:04:42;;;;;;;11.27;5.33;;;;;;;;;;5056296;28;20076;-68
2022/12/31 14:07:08;;;;;;;10.47;5.30;;;;;;;;;;5042325;28;20060;-68
2022/12/31 14:09:36;;;;;;;8.37;4.40;;;;;;;;;;5058425;28;20041;-68
2022/12/31 14:12:21;;;;;;;9.27;5.30;;;;;;;;;;5057819;28;20044;-68
2022/12/31 14:15:03;;;;;;;6.50;3.93;;;;;;;;;;5059736;28;20502;-68
2022/12/31 14:17:44;;;;;;;14.43;5.30;;;;;;;;;;5056360;28;20059;-68
2022/12/31 14:20:42;;;;;;;9.67;6.63;;;;;;;;;;5057293;28;20037;-68
2022/12/31 14:23:11;;;;;;;17.03;9.80;;;;;;;;;;5046270;28;20110;-68
2022/12/31 14:25:41;;;;;;;20.17;12.07;;;;;;;;;;5059453;28;20048;-67
2022/12/31 14:28:11;;;;;;;21.03;12.50;;;;;;;;;;5053626;28;21054;-68
2022/12/31 14:30:40;;;;;;;2.57;1.33;;;;;;;;;;5048026;28;20461;-68
2022/12/31 14:33:25;;;;;;;0.70;0.70;;;;;;;;;;5054312;28;20076;-68
2022/12/31 14:36:00;;;;;;;0.20;0.20;;;;;;;;;;5039590;28;20044;-68
2022/12/31 14:38:26;;;;;;;2.90;1.03;;;;;;;;;;5047523;28;20041;-67
2022/12/31 14:41:00;;;;;;;1.03;0.97;;;;;;;;;;5048318;28;20079;-68
2022/12/31 14:43:34;;;;;;;0.40;0.40;;;;;;;;;;5046176;28;20139;-68
2022/12/31 14:46:00;;;;;;;1.90;1.23;;;;;;;;;;5046638;28;20057;-68
2022/12/31 14:48:26;;;;;;;0.20;0.20;;;;;;;;;;5046271;28;20052;-67
2022/12/31 14:50:53;;;;;;;0.53;0.40;;;;;;;;;;5061803;28;20122;-68
2022/12/31 14:53:23;;;;;;;0.70;0.70;;;;;;;;;;5066470;28;20044;-68
2022/12/31 14:55:58;;;;;;;2.87;1.77;;;;;;;;;;5055663;28;20352;-67
2022/12/31 14:58:32;;;;;;;1.37;1.27;;;;;;;;;;5046169;28;20136;-67
2022/12/31 15:01:05;;;;;;;0.33;0.33;;;;;;;;;;5058349;28;20472;-67
2022/12/31 15:03:32;;;;;;;1.38;1.27;;;;;;;;;;5063387;28;20078;-68